createdAt,value
2023-03-14T00:03:45.022Z,5.40
2023-03-14T00:13:51.624Z,5.32
2023-03-14T00:23:53.200Z,3.90
2023-03-14T00:33:55.015Z,4.70
2023-03-14T00:43:56.629Z,3.72
2023-03-14T00:53:58.216Z,4.57
2023-03-14T01:03:59.870Z,4.05
2023-03-14T01:14:01.789Z,5.25
2023-03-14T01:24:08.438Z,3.97
2023-03-14T01:34:11.192Z,4.28
2023-03-14T01:44:13.543Z,2.70
2023-03-14T01:54:26.448Z,3.65
2023-03-14T02:04:31.576Z,2.35
2023-03-14T02:14:35.888Z,4.53
2023-03-14T02:25:12.547Z,3.90
2023-03-14T02:35:20.190Z,2.78
2023-03-14T02:45:22.077Z,2.72
2023-03-14T02:55:27.598Z,3.60
2023-03-14T03:05:33.646Z,2.85
2023-03-14T03:15:35.550Z,3.78
2023-03-14T03:25:37.353Z,3.70
2023-03-14T03:35:47.767Z,2.45
2023-03-14T03:45:52.114Z,2.78
2023-03-14T03:55:55.404Z,2.63
2023-03-14T04:06:05.839Z,2.70
2023-03-14T04:16:16.668Z,1.98
2023-03-14T04:26:18.963Z,1.92
2023-03-14T04:36:20.907Z,1.83
2023-03-14T04:46:23.236Z,2.30
2023-03-14T04:56:25.190Z,1.55
2023-03-14T05:06:27.268Z,1.85
2023-03-14T05:17:00.437Z,2.55
2023-03-14T05:27:20.739Z,1.50
2023-03-14T05:37:42.541Z,1.90
2023-03-14T05:48:02.603Z,2.28
2023-03-14T05:58:15.326Z,0.82
2023-03-14T06:08:39.410Z,1.92
2023-03-14T06:18:41.956Z,1.70
2023-03-14T06:28:45.324Z,1.42
2023-03-14T06:38:47.137Z,1.27
2023-03-14T06:48:49.459Z,0.85
2023-03-14T06:58:51.990Z,0.98
2023-03-14T07:08:56.922Z,1.90
2023-03-14T07:18:58.889Z,2.03
2023-03-14T07:29:01.006Z,0.52
2023-03-14T07:39:02.704Z,0.63
2023-03-14T07:49:13.686Z,0.95
2023-03-14T07:59:15.280Z,1.10
2023-03-14T08:09:16.873Z,0.93
2023-03-14T08:19:18.495Z,0.70
2023-03-14T08:29:20.145Z,1.02
2023-03-14T08:39:21.777Z,0.40
2023-03-14T08:49:23.336Z,0.85
2023-03-14T08:59:25.251Z,0.68
2023-03-14T09:09:31.045Z,0.77
2023-03-14T09:19:32.657Z,1.38
2023-03-14T09:29:34.386Z,1.17
2023-03-14T09:39:35.995Z,0.50
2023-03-14T09:49:40.733Z,1.55
2023-03-14T09:59:44.586Z,0.50
2023-03-14T10:09:49.540Z,2.17
2023-03-14T10:19:59.429Z,0.90
2023-03-14T10:30:07.577Z,0.88
2023-03-14T10:40:14.453Z,0.85
2023-03-14T10:50:26.549Z,1.35
2023-03-14T11:00:28.269Z,2.13
2023-03-14T11:10:35.654Z,1.70
2023-03-14T11:20:46.053Z,2.38
2023-03-14T11:30:54.390Z,1.95
2023-03-14T11:40:58.623Z,1.70
2023-03-14T11:51:00.998Z,2.20
2023-03-14T12:01:08.761Z,2.85
2023-03-14T12:11:18.464Z,3.25
2023-03-14T12:21:20.666Z,1.95
2023-03-14T12:31:31.448Z,3.03
2023-03-14T12:41:41.740Z,3.13
2023-03-14T12:51:44.936Z,2.30
2023-03-14T13:01:54.240Z,1.40
2023-03-14T13:12:04.021Z,2.00
2023-03-14T13:22:14.080Z,2.00
2023-03-14T13:32:23.747Z,2.10
2023-03-14T13:42:29.288Z,2.13
2023-03-14T13:52:37.259Z,1.77
2023-03-14T14:02:40.351Z,2.25
2023-03-14T14:12:51.135Z,1.50
2023-03-14T14:22:52.942Z,1.35
2023-03-14T14:33:18.424Z,1.42
2023-03-14T14:43:23.857Z,1.35
2023-03-14T14:53:37.739Z,1.05
2023-03-14T15:03:39.346Z,1.42
2023-03-14T15:13:40.928Z,1.77
2023-03-14T15:23:42.500Z,1.30
2023-03-14T15:33:45.615Z,0.80
2023-03-14T15:43:47.206Z,1.73
2023-03-14T15:53:48.876Z,1.15
2023-03-14T16:03:52.163Z,1.30
2023-03-14T16:13:53.876Z,1.73
2023-03-14T16:23:55.455Z,2.40
2023-03-14T16:34:01.728Z,1.83
2023-03-14T16:44:03.352Z,1.67
2023-03-14T16:54:04.924Z,1.00
2023-03-14T17:04:09.187Z,0.98
2023-03-14T17:14:10.775Z,1.20
2023-03-14T17:24:12.411Z,1.27
2023-03-14T17:34:14.007Z,2.22
2023-03-14T17:44:15.552Z,1.15
2023-03-14T17:54:17.175Z,1.30
2023-03-14T18:04:20.377Z,2.33
2023-03-14T18:14:21.958Z,1.13
2023-03-14T18:24:23.667Z,1.35
2023-03-14T18:34:25.737Z,2.97
2023-03-14T18:44:27.324Z,0.60
2023-03-14T18:54:28.906Z,1.70
2023-03-14T19:04:30.825Z,1.67
2023-03-14T19:14:32.414Z,1.15
2023-03-14T19:24:34.928Z,2.33
2023-03-14T19:34:36.536Z,2.03
2023-03-14T19:44:38.250Z,1.48
2023-03-14T19:54:42.214Z,0.73
2023-03-14T20:04:47.275Z,1.17
2023-03-14T20:14:48.965Z,1.10
2023-03-14T20:24:52.632Z,0.80
2023-03-14T20:34:57.675Z,1.07
2023-03-14T20:45:01.413Z,1.92
2023-03-14T20:55:06.606Z,1.90
2023-03-14T21:05:09.778Z,1.30
2023-03-14T21:15:14.574Z,0.98
2023-03-14T21:25:17.821Z,2.17
2023-03-14T21:35:20.425Z,1.48
2023-03-14T21:45:26.908Z,1.25
2023-03-14T21:55:29.225Z,1.40
2023-03-14T22:05:33.363Z,1.67
2023-03-14T22:15:34.972Z,1.85
2023-03-14T22:25:39.826Z,1.15
2023-03-14T22:35:41.422Z,0.85
2023-03-14T22:45:43.717Z,0.90
2023-03-14T22:55:46.862Z,2.28
2023-03-14T23:05:48.681Z,1.45
2023-03-14T23:15:50.258Z,1.35
2023-03-14T23:25:53.768Z,1.48
2023-03-14T23:35:56.773Z,0.88
2023-03-14T23:45:59.103Z,1.15
2023-03-14T23:56:01.330Z,2.47
